sensor_id;sensor_type;location;lat;lon;timestamp;P1;durP1;ratioP1;P2;durP2;ratioP2
64842;SDS011;51310;52.198;5.422;2024-01-06T00:02:17;14.20;;;8.20;;
64842;SDS011;51310;52.198;5.422;2024-01-06T00:04:43;13.13;;;7.40;;
64842;SDS011;51310;52.198;5.422;2024-01-06T00:07:09;13.15;;;7.35;;
64842;SDS011;51310;52.198;5.422;2024-01-06T00:09:35;14.85;;;7.03;;
64842;SDS011;51310;52.198;5.422;2024-01-06T00:12:01;12.65;;;6.78;;
64842;SDS011;51310;52.198;5.422;2024-01-06T00:14:27;11.70;;;5.95;;
64842;SDS011;51310;52.198;5.422;2024-01-06T00:16:53;10.52;;;5.63;;
64842;SDS011;51310;52.198;5.422;2024-01-06T00:19:19;10.80;;;5.60;;
64842;SDS011;51310;52.198;5.422;2024-01-06T00:21:45;11.85;;;6.45;;
64842;SDS011;51310;52.198;5.422;2024-01-06T00:24:11;11.10;;;6.10;;
64842;SDS011;51310;52.198;5.422;2024-01-06T00:26:37;16.83;;;7.47;;
64842;SDS011;51310;52.198;5.422;2024-01-06T00:29:05;9.45;;;5.45;;
64842;SDS011;51310;52.198;5.422;2024-01-06T00:31:31;11.40;;;6.32;;
64842;SDS011;51310;52.198;5.422;2024-01-06T00:33:56;13.57;;;7.45;;
64842;SDS011;51310;52.198;5.422;2024-01-06T00:36:22;13.80;;;7.30;;
64842;SDS011;51310;52.198;5.422;2024-01-06T00:38:48;15.18;;;8.55;;
64842;SDS011;51310;52.198;5.422;2024-01-06T00:41:14;17.20;;;8.15;;
64842;SDS011;51310;52.198;5.422;2024-01-06T00:43:40;17.38;;;9.57;;
64842;SDS011;51310;52.198;5.422;2024-01-06T00:46:07;18.10;;;8.35;;
64842;SDS011;51310;52.198;5.422;2024-01-06T00:48:33;15.30;;;7.63;;
64842;SDS011;51310;52.198;5.422;2024-01-06T00:50:59;14.88;;;8.43;;
64842;SDS011;51310;52.198;5.422;2024-01-06T00:53:24;17.35;;;9.57;;
64842;SDS011;51310;52.198;5.422;2024-01-06T00:55:50;16.58;;;9.55;;
64842;SDS011;51310;52.198;5.422;2024-01-06T00:58:16;14.30;;;8.73;;
64842;SDS011;51310;52.198;5.422;2024-01-06T01:00:42;12.95;;;7.90;;
64842;SDS011;51310;52.198;5.422;2024-01-06T01:03:08;15.38;;;7.93;;
64842;SDS011;51310;52.198;5.422;2024-01-06T01:05:34;14.70;;;6.88;;
64842;SDS011;51310;52.198;5.422;2024-01-06T01:08:00;17.42;;;8.55;;
64842;SDS011;51310;52.198;5.422;2024-01-06T01:10:25;15.45;;;7.80;;
64842;SDS011;51310;52.198;5.422;2024-01-06T01:12:51;14.10;;;8.10;;
64842;SDS011;51310;52.198;5.422;2024-01-06T01:15:17;15.88;;;8.38;;
64842;SDS011;51310;52.198;5.422;2024-01-06T01:17:43;17.40;;;9.05;;
64842;SDS011;51310;52.198;5.422;2024-01-06T01:20:09;19.20;;;9.43;;
64842;SDS011;51310;52.198;5.422;2024-01-06T01:22:36;18.83;;;8.68;;
64842;SDS011;51310;52.198;5.422;2024-01-06T01:25:01;18.88;;;9.82;;
64842;SDS011;51310;52.198;5.422;2024-01-06T01:27:32;19.00;;;10.13;;
64842;SDS011;51310;52.198;5.422;2024-01-06T01:29:59;20.77;;;9.93;;
64842;SDS011;51310;52.198;5.422;2024-01-06T01:32:25;16.70;;;8.50;;
64842;SDS011;51310;52.198;5.422;2024-01-06T01:34:51;18.08;;;9.88;;
64842;SDS011;51310;52.198;5.422;2024-01-06T01:37:17;16.17;;;9.18;;
64842;SDS011;51310;52.198;5.422;2024-01-06T01:39:43;15.98;;;8.68;;
64842;SDS011;51310;52.198;5.422;2024-01-06T01:42:09;20.65;;;8.50;;
64842;SDS011;51310;52.198;5.422;2024-01-06T01:44:34;18.05;;;9.57;;
64842;SDS011;51310;52.198;5.422;2024-01-06T01:47:00;20.20;;;8.52;;
64842;SDS011;51310;52.198;5.422;2024-01-06T01:49:30;13.65;;;7.78;;
64842;SDS011;51310;52.198;5.422;2024-01-06T01:51:57;13.88;;;8.07;;
64842;SDS011;51310;52.198;5.422;2024-01-06T01:54:24;14.38;;;8.40;;
64842;SDS011;51310;52.198;5.422;2024-01-06T01:56:50;16.58;;;7.85;;
64842;SDS011;51310;52.198;5.422;2024-01-06T01:59:17;11.60;;;6.50;;
64842;SDS011;51310;52.198;5.422;2024-01-06T02:01:44;10.23;;;5.97;;
64842;SDS011;51310;52.198;5.422;2024-01-06T02:04:11;9.75;;;5.82;;
64842;SDS011;51310;52.198;5.422;2024-01-06T02:06:38;15.57;;;7.00;;
64842;SDS011;51310;52.198;5.422;2024-01-06T02:09:04;14.13;;;7.28;;
64842;SDS011;51310;52.198;5.422;2024-01-06T02:11:31;15.77;;;6.68;;
64842;SDS011;51310;52.198;5.422;2024-01-06T02:13:57;15.88;;;8.15;;
64842;SDS011;51310;52.198;5.422;2024-01-06T02:16:22;13.68;;;7.20;;
64842;SDS011;51310;52.198;5.422;2024-01-06T02:18:48;15.40;;;7.35;;
64842;SDS011;51310;52.198;5.422;2024-01-06T02:21:14;13.05;;;7.15;;
64842;SDS011;51310;52.198;5.422;2024-01-06T02:23:42;14.23;;;7.55;;
64842;SDS011;51310;52.198;5.422;2024-01-06T02:26:09;15.57;;;7.80;;
64842;SDS011;51310;52.198;5.422;2024-01-06T02:28:36;17.98;;;9.48;;
64842;SDS011;51310;52.198;5.422;2024-01-06T02:31:05;16.92;;;8.82;;
64842;SDS011;51310;52.198;5.422;2024-01-06T02:33:31;20.63;;;11.13;;
64842;SDS011;51310;52.198;5.422;2024-01-06T02:35:57;18.17;;;8.85;;
64842;SDS011;51310;52.198;5.422;2024-01-06T02:38:23;16.23;;;8.88;;
64842;SDS011;51310;52.198;5.422;2024-01-06T02:40:49;21.58;;;11.50;;
64842;SDS011;51310;52.198;5.422;2024-01-06T02:43:14;22.35;;;11.50;;
64842;SDS011;51310;52.198;5.422;2024-01-06T02:45:40;22.80;;;10.02;;
64842;SDS011;51310;52.198;5.422;2024-01-06T02:48:06;21.35;;;12.40;;
64842;SDS011;51310;52.198;5.422;2024-01-06T02:50:32;20.58;;;10.63;;
64842;SDS011;51310;52.198;5.422;2024-01-06T02:52:58;19.00;;;8.75;;
64842;SDS011;51310;52.198;5.422;2024-01-06T02:55:24;22.15;;;10.75;;
64842;SDS011;51310;52.198;5.422;2024-01-06T02:57:50;22.90;;;10.68;;
64842;SDS011;51310;52.198;5.422;2024-01-06T03:00:16;23.63;;;10.23;;
64842;SDS011;51310;52.198;5.422;2024-01-06T03:02:42;18.95;;;10.05;;
64842;SDS011;51310;52.198;5.422;2024-01-06T03:05:08;23.33;;;10.43;;
64842;SDS011;51310;52.198;5.422;2024-01-06T03:07:35;17.60;;;9.10;;
64842;SDS011;51310;52.198;5.422;2024-01-06T03:10:01;16.35;;;8.40;;
64842;SDS011;51310;52.198;5.422;2024-01-06T03:12:27;23.73;;;11.02;;
64842;SDS011;51310;52.198;5.422;2024-01-06T03:14:53;19.20;;;9.23;;
64842;SDS011;51310;52.198;5.422;2024-01-06T03:17:19;19.15;;;9.57;;
64842;SDS011;51310;52.198;5.422;2024-01-06T03:19:45;15.90;;;8.10;;
64842;SDS011;51310;52.198;5.422;2024-01-06T03:22:11;18.38;;;8.85;;
64842;SDS011;51310;52.198;5.422;2024-01-06T03:24:37;17.15;;;9.55;;
64842;SDS011;51310;52.198;5.422;2024-01-06T03:27:04;19.10;;;8.57;;
64842;SDS011;51310;52.198;5.422;2024-01-06T03:29:30;19.38;;;8.82;;
64842;SDS011;51310;52.198;5.422;2024-01-06T03:31:56;17.80;;;8.60;;
64842;SDS011;51310;52.198;5.422;2024-01-06T03:34:22;17.42;;;8.27;;
64842;SDS011;51310;52.198;5.422;2024-01-06T03:36:48;20.60;;;10.05;;
64842;SDS011;51310;52.198;5.422;2024-01-06T03:39:14;13.95;;;7.60;;
64842;SDS011;51310;52.198;5.422;2024-01-06T03:41:40;16.83;;;8.30;;
64842;SDS011;51310;52.198;5.422;2024-01-06T03:44:06;18.40;;;8.90;;
64842;SDS011;51310;52.198;5.422;2024-01-06T03:46:32;20.45;;;9.13;;
64842;SDS011;51310;52.198;5.422;2024-01-06T03:49:00;19.83;;;9.63;;
64842;SDS011;51310;52.198;5.422;2024-01-06T03:51:26;17.70;;;9.20;;
64842;SDS011;51310;52.198;5.422;2024-01-06T03:53:52;20.23;;;9.23;;
64842;SDS011;51310;52.198;5.422;2024-01-06T03:56:18;25.05;;;9.98;;
64842;SDS011;51310;52.198;5.422;2024-01-06T03:58:44;16.88;;;9.27;;
64842;SDS011;51310;52.198;5.422;2024-01-06T04:01:10;19.67;;;9.05;;
64842;SDS011;51310;52.198;5.422;2024-01-06T04:03:36;17.77;;;8.93;;
64842;SDS011;51310;52.198;5.422;2024-01-06T04:06:05;16.00;;;8.15;;
64842;SDS011;51310;52.198;5.422;2024-01-06T04:08:32;15.88;;;7.93;;
64842;SDS011;51310;52.198;5.422;2024-01-06T04:10:57;16.58;;;7.65;;
64842;SDS011;51310;52.198;5.422;2024-01-06T04:13:23;13.07;;;6.95;;
64842;SDS011;51310;52.198;5.422;2024-01-06T04:15:50;13.52;;;7.95;;
64842;SDS011;51310;52.198;5.422;2024-01-06T04:18:16;16.00;;;7.70;;
64842;SDS011;51310;52.198;5.422;2024-01-06T04:20:43;12.48;;;6.80;;
64842;SDS011;51310;52.198;5.422;2024-01-06T04:23:09;13.35;;;6.50;;
64842;SDS011;51310;52.198;5.422;2024-01-06T04:25:35;14.90;;;7.60;;
64842;SDS011;51310;52.198;5.422;2024-01-06T04:28:00;17.30;;;7.43;;
64842;SDS011;51310;52.198;5.422;2024-01-06T04:30:26;16.65;;;8.38;;
64842;SDS011;51310;52.198;5.422;2024-01-06T04:32:52;14.70;;;7.93;;
64842;SDS011;51310;52.198;5.422;2024-01-06T04:35:19;17.55;;;8.63;;
64842;SDS011;51310;52.198;5.422;2024-01-06T04:37:46;14.63;;;6.88;;
64842;SDS011;51310;52.198;5.422;2024-01-06T04:40:12;13.70;;;7.22;;
64842;SDS011;51310;52.198;5.422;2024-01-06T04:42:38;14.95;;;7.63;;
64842;SDS011;51310;52.198;5.422;2024-01-06T04:45:04;13.15;;;7.85;;
64842;SDS011;51310;52.198;5.422;2024-01-06T04:47:31;17.35;;;9.30;;
64842;SDS011;51310;52.198;5.422;2024-01-06T04:49:57;12.70;;;6.45;;
64842;SDS011;51310;52.198;5.422;2024-01-06T04:52:23;15.35;;;7.65;;
64842;SDS011;51310;52.198;5.422;2024-01-06T04:54:49;11.45;;;6.78;;
64842;SDS011;51310;52.198;5.422;2024-01-06T04:57:15;14.13;;;7.97;;
64842;SDS011;51310;52.198;5.422;2024-01-06T04:59:41;13.80;;;7.95;;
64842;SDS011;51310;52.198;5.422;2024-01-06T05:02:07;12.57;;;7.65;;
64842;SDS011;51310;52.198;5.422;2024-01-06T05:04:33;13.15;;;7.85;;
64842;SDS011;51310;52.198;5.422;2024-01-06T05:06:59;13.93;;;7.53;;
64842;SDS011;51310;52.198;5.422;2024-01-06T05:09:25;16.08;;;8.57;;
64842;SDS011;51310;52.198;5.422;2024-01-06T05:11:51;12.95;;;8.13;;
64842;SDS011;51310;52.198;5.422;2024-01-06T05:14:17;12.77;;;7.10;;
64842;SDS011;51310;52.198;5.422;2024-01-06T05:16:43;17.95;;;8.20;;
64842;SDS011;51310;52.198;5.422;2024-01-06T05:19:09;17.23;;;8.35;;
64842;SDS011;51310;52.198;5.422;2024-01-06T05:21:35;15.35;;;7.97;;
64842;SDS011;51310;52.198;5.422;2024-01-06T05:24:01;13.48;;;8.13;;
64842;SDS011;51310;52.198;5.422;2024-01-06T05:26:28;14.13;;;8.73;;
64842;SDS011;51310;52.198;5.422;2024-01-06T05:28:54;18.45;;;9.32;;
64842;SDS011;51310;52.198;5.422;2024-01-06T05:31:20;14.73;;;8.07;;
64842;SDS011;51310;52.198;5.422;2024-01-06T05:33:46;15.70;;;9.05;;
64842;SDS011;51310;52.198;5.422;2024-01-06T05:36:11;15.50;;;7.55;;
64842;SDS011;51310;52.198;5.422;2024-01-06T05:38:37;19.33;;;7.93;;
64842;SDS011;51310;52.198;5.422;2024-01-06T05:41:03;19.95;;;9.88;;
64842;SDS011;51310;52.198;5.422;2024-01-06T05:43:29;19.00;;;9.52;;
64842;SDS011;51310;52.198;5.422;2024-01-06T05:45:55;18.45;;;11.00;;
64842;SDS011;51310;52.198;5.422;2024-01-06T05:48:21;23.42;;;11.32;;
64842;SDS011;51310;52.198;5.422;2024-01-06T05:50:47;18.65;;;10.40;;
64842;SDS011;51310;52.198;5.422;2024-01-06T05:53:12;19.70;;;10.25;;
64842;SDS011;51310;52.198;5.422;2024-01-06T05:55:39;16.55;;;9.52;;
64842;SDS011;51310;52.198;5.422;2024-01-06T05:58:05;19.60;;;9.95;;
64842;SDS011;51310;52.198;5.422;2024-01-06T06:00:31;16.38;;;10.13;;
64842;SDS011;51310;52.198;5.422;2024-01-06T06:02:57;18.27;;;8.63;;
64842;SDS011;51310;52.198;5.422;2024-01-06T06:05:23;22.35;;;10.15;;
64842;SDS011;51310;52.198;5.422;2024-01-06T06:07:49;22.88;;;11.07;;
64842;SDS011;51310;52.198;5.422;2024-01-06T06:10:15;22.85;;;9.43;;
64842;SDS011;51310;52.198;5.422;2024-01-06T06:12:43;22.63;;;10.27;;
64842;SDS011;51310;52.198;5.422;2024-01-06T06:15:09;16.42;;;9.52;;
64842;SDS011;51310;52.198;5.422;2024-01-06T06:17:35;18.40;;;9.60;;
64842;SDS011;51310;52.198;5.422;2024-01-06T06:20:02;22.77;;;11.07;;
64842;SDS011;51310;52.198;5.422;2024-01-06T06:22:29;23.88;;;9.32;;
64842;SDS011;51310;52.198;5.422;2024-01-06T06:24:58;21.67;;;10.05;;
64842;SDS011;51310;52.198;5.422;2024-01-06T06:27:25;22.00;;;8.75;;
64842;SDS011;51310;52.198;5.422;2024-01-06T06:29:52;16.17;;;9.07;;
64842;SDS011;51310;52.198;5.422;2024-01-06T06:32:21;25.73;;;10.15;;
64842;SDS011;51310;52.198;5.422;2024-01-06T06:34:47;17.95;;;8.63;;
64842;SDS011;51310;52.198;5.422;2024-01-06T06:37:12;16.50;;;8.27;;
64842;SDS011;51310;52.198;5.422;2024-01-06T06:39:38;17.55;;;9.15;;
64842;SDS011;51310;52.198;5.422;2024-01-06T06:42:04;16.05;;;8.88;;
64842;SDS011;51310;52.198;5.422;2024-01-06T06:44:30;17.20;;;8.95;;
64842;SDS011;51310;52.198;5.422;2024-01-06T06:46:56;15.20;;;9.15;;
64842;SDS011;51310;52.198;5.422;2024-01-06T06:49:22;17.55;;;8.27;;
64842;SDS011;51310;52.198;5.422;2024-01-06T06:51:48;26.15;;;9.02;;
64842;SDS011;51310;52.198;5.422;2024-01-06T06:54:15;18.55;;;10.07;;
64842;SDS011;51310;52.198;5.422;2024-01-06T06:56:41;19.67;;;9.25;;
64842;SDS011;51310;52.198;5.422;2024-01-06T06:59:08;19.35;;;9.20;;
64842;SDS011;51310;52.198;5.422;2024-01-06T07:01:34;14.75;;;7.78;;
64842;SDS011;51310;52.198;5.422;2024-01-06T07:04:03;17.25;;;9.23;;
64842;SDS011;51310;52.198;5.422;2024-01-06T07:06:29;17.52;;;8.85;;
64842;SDS011;51310;52.198;5.422;2024-01-06T07:08:56;17.45;;;7.28;;
64842;SDS011;51310;52.198;5.422;2024-01-06T07:11:22;15.55;;;7.70;;
64842;SDS011;51310;52.198;5.422;2024-01-06T07:13:49;13.45;;;7.78;;
64842;SDS011;51310;52.198;5.422;2024-01-06T07:16:15;15.82;;;8.57;;
64842;SDS011;51310;52.198;5.422;2024-01-06T07:18:41;15.20;;;8.00;;
64842;SDS011;51310;52.198;5.422;2024-01-06T07:21:07;14.10;;;8.25;;
64842;SDS011;51310;52.198;5.422;2024-01-06T07:23:33;16.38;;;8.30;;
64842;SDS011;51310;52.198;5.422;2024-01-06T07:26:00;11.52;;;7.13;;
64842;SDS011;51310;52.198;5.422;2024-01-06T07:28:26;17.30;;;7.38;;
64842;SDS011;51310;52.198;5.422;2024-01-06T07:30:52;13.50;;;7.82;;
64842;SDS011;51310;52.198;5.422;2024-01-06T07:33:18;11.45;;;7.03;;
64842;SDS011;51310;52.198;5.422;2024-01-06T07:35:45;14.85;;;8.85;;
64842;SDS011;51310;52.198;5.422;2024-01-06T07:38:12;13.90;;;7.75;;
64842;SDS011;51310;52.198;5.422;2024-01-06T07:40:38;13.20;;;6.57;;
64842;SDS011;51310;52.198;5.422;2024-01-06T07:43:05;17.63;;;7.80;;
64842;SDS011;51310;52.198;5.422;2024-01-06T07:45:31;13.38;;;6.97;;
64842;SDS011;51310;52.198;5.422;2024-01-06T07:48:01;11.82;;;7.70;;
64842;SDS011;51310;52.198;5.422;2024-01-06T07:50:27;14.23;;;7.82;;
64842;SDS011;51310;52.198;5.422;2024-01-06T07:52:53;13.50;;;7.80;;
64842;SDS011;51310;52.198;5.422;2024-01-06T07:55:19;13.95;;;7.47;;
64842;SDS011;51310;52.198;5.422;2024-01-06T07:57:45;11.80;;;7.20;;
64842;SDS011;51310;52.198;5.422;2024-01-06T08:00:11;16.90;;;7.70;;
64842;SDS011;51310;52.198;5.422;2024-01-06T08:02:41;13.95;;;6.40;;
64842;SDS011;51310;52.198;5.422;2024-01-06T08:05:07;12.00;;;6.47;;
64842;SDS011;51310;52.198;5.422;2024-01-06T08:07:34;10.43;;;6.50;;
64842;SDS011;51310;52.198;5.422;2024-01-06T08:10:00;17.00;;;7.47;;
64842;SDS011;51310;52.198;5.422;2024-01-06T08:12:29;15.25;;;6.45;;
64842;SDS011;51310;52.198;5.422;2024-01-06T08:14:56;17.85;;;8.07;;
64842;SDS011;51310;52.198;5.422;2024-01-06T08:17:22;12.70;;;7.60;;
64842;SDS011;51310;52.198;5.422;2024-01-06T08:19:47;16.08;;;6.78;;
64842;SDS011;51310;52.198;5.422;2024-01-06T08:22:14;10.73;;;6.82;;
64842;SDS011;51310;52.198;5.422;2024-01-06T08:24:40;14.73;;;8.48;;
64842;SDS011;51310;52.198;5.422;2024-01-06T08:27:05;11.63;;;6.15;;
64842;SDS011;51310;52.198;5.422;2024-01-06T08:29:31;13.88;;;8.13;;
64842;SDS011;51310;52.198;5.422;2024-01-06T08:31:57;12.55;;;7.10;;
64842;SDS011;51310;52.198;5.422;2024-01-06T08:34:23;16.63;;;8.13;;
64842;SDS011;51310;52.198;5.422;2024-01-06T08:36:49;17.08;;;7.05;;
64842;SDS011;51310;52.198;5.422;2024-01-06T08:39:16;18.02;;;7.80;;
64842;SDS011;51310;52.198;5.422;2024-01-06T08:41:42;16.13;;;8.95;;
64842;SDS011;51310;52.198;5.422;2024-01-06T08:44:08;20.27;;;8.25;;
64842;SDS011;51310;52.198;5.422;2024-01-06T08:46:34;12.70;;;7.38;;
64842;SDS011;51310;52.198;5.422;2024-01-06T08:49:00;12.05;;;7.13;;
64842;SDS011;51310;52.198;5.422;2024-01-06T08:51:26;18.65;;;8.48;;
64842;SDS011;51310;52.198;5.422;2024-01-06T08:53:52;18.98;;;8.18;;
64842;SDS011;51310;52.198;5.422;2024-01-06T08:56:18;10.77;;;6.90;;
64842;SDS011;51310;52.198;5.422;2024-01-06T08:58:45;15.60;;;8.50;;
64842;SDS011;51310;52.198;5.422;2024-01-06T09:01:11;14.38;;;7.85;;
64842;SDS011;51310;52.198;5.422;2024-01-06T09:03:38;15.70;;;7.30;;
64842;SDS011;51310;52.198;5.422;2024-01-06T09:06:04;20.65;;;8.02;;
64842;SDS011;51310;52.198;5.422;2024-01-06T09:08:30;17.13;;;8.57;;
64842;SDS011;51310;52.198;5.422;2024-01-06T09:10:56;19.48;;;7.85;;
64842;SDS011;51310;52.198;5.422;2024-01-06T09:13:23;10.63;;;7.40;;
64842;SDS011;51310;52.198;5.422;2024-01-06T09:15:50;14.27;;;7.55;;
64842;SDS011;51310;52.198;5.422;2024-01-06T09:18:16;12.55;;;7.32;;
64842;SDS011;51310;52.198;5.422;2024-01-06T09:20:43;16.08;;;9.00;;
64842;SDS011;51310;52.198;5.422;2024-01-06T09:23:09;12.00;;;7.10;;
64842;SDS011;51310;52.198;5.422;2024-01-06T09:25:37;17.50;;;6.82;;
64842;SDS011;51310;52.198;5.422;2024-01-06T09:28:05;15.88;;;7.05;;
64842;SDS011;51310;52.198;5.422;2024-01-06T09:30:31;12.98;;;7.22;;
64842;SDS011;51310;52.198;5.422;2024-01-06T09:32:57;16.10;;;8.55;;
64842;SDS011;51310;52.198;5.422;2024-01-06T09:35:23;12.25;;;6.57;;
64842;SDS011;51310;52.198;5.422;2024-01-06T09:37:49;15.25;;;7.07;;
64842;SDS011;51310;52.198;5.422;2024-01-06T09:40:17;11.80;;;7.30;;
64842;SDS011;51310;52.198;5.422;2024-01-06T09:42:52;14.35;;;7.60;;
64842;SDS011;51310;52.198;5.422;2024-01-06T09:45:19;11.07;;;6.60;;
64842;SDS011;51310;52.198;5.422;2024-01-06T09:47:48;11.10;;;6.78;;
64842;SDS011;51310;52.198;5.422;2024-01-06T09:50:20;11.07;;;6.88;;
64842;SDS011;51310;52.198;5.422;2024-01-06T09:52:47;15.45;;;7.03;;
64842;SDS011;51310;52.198;5.422;2024-01-06T09:55:21;15.10;;;6.35;;
64842;SDS011;51310;52.198;5.422;2024-01-06T09:57:53;12.13;;;6.97;;
64842;SDS011;51310;52.198;5.422;2024-01-06T10:00:20;15.27;;;7.25;;
64842;SDS011;51310;52.198;5.422;2024-01-06T10:02:47;10.40;;;6.43;;
64842;SDS011;51310;52.198;5.422;2024-01-06T10:05:16;10.88;;;5.88;;
64842;SDS011;51310;52.198;5.422;2024-01-06T10:07:44;12.57;;;6.95;;
64842;SDS011;51310;52.198;5.422;2024-01-06T10:10:10;13.63;;;5.45;;
64842;SDS011;51310;52.198;5.422;2024-01-06T10:12:40;12.80;;;5.85;;
64842;SDS011;51310;52.198;5.422;2024-01-06T10:15:08;14.00;;;7.18;;
64842;SDS011;51310;52.198;5.422;2024-01-06T10:17:37;11.60;;;6.38;;
64842;SDS011;51310;52.198;5.422;2024-01-06T10:20:10;13.05;;;6.10;;
64842;SDS011;51310;52.198;5.422;2024-01-06T10:22:40;11.50;;;6.10;;
64842;SDS011;51310;52.198;5.422;2024-01-06T10:25:08;12.32;;;6.47;;
64842;SDS011;51310;52.198;5.422;2024-01-06T10:27:37;10.95;;;5.95;;
64842;SDS011;51310;52.198;5.422;2024-01-06T10:30:08;10.93;;;5.50;;
64842;SDS011;51310;52.198;5.422;2024-01-06T10:32:35;13.30;;;5.65;;
64842;SDS011;51310;52.198;5.422;2024-01-06T10:35:02;11.90;;;6.32;;
64842;SDS011;51310;52.198;5.422;2024-01-06T10:37:31;9.93;;;6.15;;
64842;SDS011;51310;52.198;5.422;2024-01-06T10:42:44;11.05;;;5.90;;
64842;SDS011;51310;52.198;5.422;2024-01-06T10:45:11;13.60;;;6.80;;
64842;SDS011;51310;52.198;5.422;2024-01-06T10:47:42;15.10;;;6.30;;
64842;SDS011;51310;52.198;5.422;2024-01-06T10:50:09;12.95;;;6.60;;
64842;SDS011;51310;52.198;5.422;2024-01-06T10:52:37;12.15;;;7.38;;
64842;SDS011;51310;52.198;5.422;2024-01-06T10:55:04;10.93;;;5.90;;
64842;SDS011;51310;52.198;5.422;2024-01-06T10:57:30;12.15;;;6.20;;
64842;SDS011;51310;52.198;5.422;2024-01-06T10:59:57;10.43;;;5.78;;
64842;SDS011;51310;52.198;5.422;2024-01-06T11:02:25;13.70;;;6.97;;
64842;SDS011;51310;52.198;5.422;2024-01-06T11:04:52;8.93;;;5.70;;
64842;SDS011;51310;52.198;5.422;2024-01-06T11:07:19;13.65;;;6.50;;
64842;SDS011;51310;52.198;5.422;2024-01-06T11:13:05;13.15;;;6.30;;
64842;SDS011;51310;52.198;5.422;2024-01-06T11:15:39;14.18;;;6.22;;
64842;SDS011;51310;52.198;5.422;2024-01-06T11:18:34;10.55;;;6.43;;
64842;SDS011;51310;52.198;5.422;2024-01-06T11:26:52;15.30;;;6.55;;
64842;SDS011;51310;52.198;5.422;2024-01-06T11:29:22;10.93;;;5.95;;
64842;SDS011;51310;52.198;5.422;2024-01-06T11:32:16;9.02;;;6.03;;
64842;SDS011;51310;52.198;5.422;2024-01-06T11:34:49;9.98;;;5.35;;
64842;SDS011;51310;52.198;5.422;2024-01-06T11:37:18;10.07;;;6.43;;
64842;SDS011;51310;52.198;5.422;2024-01-06T11:39:49;13.82;;;6.50;;
64842;SDS011;51310;52.198;5.422;2024-01-06T11:42:16;13.57;;;6.20;;
64842;SDS011;51310;52.198;5.422;2024-01-06T11:44:45;9.40;;;5.45;;
64842;SDS011;51310;52.198;5.422;2024-01-06T11:47:16;10.15;;;5.20;;
64842;SDS011;51310;52.198;5.422;2024-01-06T11:49:48;12.73;;;5.93;;
64842;SDS011;51310;52.198;5.422;2024-01-06T11:52:20;15.02;;;5.78;;
64842;SDS011;51310;52.198;5.422;2024-01-06T11:54:47;9.80;;;5.88;;
64842;SDS011;51310;52.198;5.422;2024-01-06T11:57:14;10.63;;;5.75;;
64842;SDS011;51310;52.198;5.422;2024-01-06T11:59:40;16.80;;;5.57;;
64842;SDS011;51310;52.198;5.422;2024-01-06T12:02:10;9.00;;;4.97;;
64842;SDS011;51310;52.198;5.422;2024-01-06T12:04:40;12.90;;;5.55;;
64842;SDS011;51310;52.198;5.422;2024-01-06T12:07:08;12.18;;;5.93;;
64842;SDS011;51310;52.198;5.422;2024-01-06T12:09:34;8.65;;;5.53;;
64842;SDS011;51310;52.198;5.422;2024-01-06T12:12:04;17.05;;;6.15;;
64842;SDS011;51310;52.198;5.422;2024-01-06T12:14:31;10.02;;;6.35;;
64842;SDS011;51310;52.198;5.422;2024-01-06T12:17:00;10.45;;;6.97;;
64842;SDS011;51310;52.198;5.422;2024-01-06T12:19:31;10.20;;;5.82;;
64842;SDS011;51310;52.198;5.422;2024-01-06T12:21:58;9.55;;;6.18;;
64842;SDS011;51310;52.198;5.422;2024-01-06T12:24:26;12.20;;;6.22;;
64842;SDS011;51310;52.198;5.422;2024-01-06T12:26:55;14.35;;;6.03;;
64842;SDS011;51310;52.198;5.422;2024-01-06T12:29:22;9.57;;;6.45;;
64842;SDS011;51310;52.198;5.422;2024-01-06T12:31:56;14.90;;;6.43;;
64842;SDS011;51310;52.198;5.422;2024-01-06T12:34:25;8.02;;;5.05;;
64842;SDS011;51310;52.198;5.422;2024-01-06T12:36:54;11.65;;;6.28;;
64842;SDS011;51310;52.198;5.422;2024-01-06T12:39:21;8.15;;;5.43;;
64842;SDS011;51310;52.198;5.422;2024-01-06T12:41:48;11.05;;;5.80;;
64842;SDS011;51310;52.198;5.422;2024-01-06T12:44:16;13.48;;;6.78;;
64842;SDS011;51310;52.198;5.422;2024-01-06T12:46:42;11.82;;;7.40;;
64842;SDS011;51310;52.198;5.422;2024-01-06T12:49:08;11.30;;;6.28;;
64842;SDS011;51310;52.198;5.422;2024-01-06T12:51:34;13.90;;;6.47;;
64842;SDS011;51310;52.198;5.422;2024-01-06T12:54:00;10.65;;;6.43;;
64842;SDS011;51310;52.198;5.422;2024-01-06T12:56:26;17.48;;;6.75;;
64842;SDS011;51310;52.198;5.422;2024-01-06T12:58:52;11.25;;;5.82;;
64842;SDS011;51310;52.198;5.422;2024-01-06T13:01:18;9.55;;;5.65;;
64842;SDS011;51310;52.198;5.422;2024-01-06T13:03:44;9.13;;;6.03;;
64842;SDS011;51310;52.198;5.422;2024-01-06T13:06:10;11.38;;;7.68;;
64842;SDS011;51310;52.198;5.422;2024-01-06T13:08:37;15.73;;;7.80;;
64842;SDS011;51310;52.198;5.422;2024-01-06T13:11:03;12.38;;;6.55;;
64842;SDS011;51310;52.198;5.422;2024-01-06T13:13:29;14.32;;;6.30;;
64842;SDS011;51310;52.198;5.422;2024-01-06T13:15:56;10.80;;;6.18;;
64842;SDS011;51310;52.198;5.422;2024-01-06T13:18:22;13.80;;;7.82;;
64842;SDS011;51310;52.198;5.422;2024-01-06T13:20:48;17.90;;;7.10;;
64842;SDS011;51310;52.198;5.422;2024-01-06T13:23:14;15.13;;;8.15;;
64842;SDS011;51310;52.198;5.422;2024-01-06T13:25:40;11.27;;;7.18;;
64842;SDS011;51310;52.198;5.422;2024-01-06T13:28:06;9.75;;;6.28;;
64842;SDS011;51310;52.198;5.422;2024-01-06T13:30:33;11.27;;;6.30;;
64842;SDS011;51310;52.198;5.422;2024-01-06T13:32:59;14.70;;;7.13;;
64842;SDS011;51310;52.198;5.422;2024-01-06T13:35:25;18.65;;;8.05;;
64842;SDS011;51310;52.198;5.422;2024-01-06T13:37:51;13.98;;;7.20;;
64842;SDS011;51310;52.198;5.422;2024-01-06T13:40:19;13.18;;;7.10;;
64842;SDS011;51310;52.198;5.422;2024-01-06T13:42:48;15.90;;;8.10;;
64842;SDS011;51310;52.198;5.422;2024-01-06T13:45:19;17.38;;;7.70;;
64842;SDS011;51310;52.198;5.422;2024-01-06T13:47:45;17.08;;;7.97;;
64842;SDS011;51310;52.198;5.422;2024-01-06T13:50:11;16.33;;;8.07;;
64842;SDS011;51310;52.198;5.422;2024-01-06T13:52:42;19.67;;;9.80;;
64842;SDS011;51310;52.198;5.422;2024-01-06T13:55:10;14.50;;;7.38;;
64842;SDS011;51310;52.198;5.422;2024-01-06T13:57:36;18.38;;;8.88;;
64842;SDS011;51310;52.198;5.422;2024-01-06T14:00:07;18.60;;;8.63;;
64842;SDS011;51310;52.198;5.422;2024-01-06T14:02:35;17.17;;;8.63;;
64842;SDS011;51310;52.198;5.422;2024-01-06T14:05:03;19.42;;;7.47;;
64842;SDS011;51310;52.198;5.422;2024-01-06T14:07:33;15.27;;;7.68;;
64842;SDS011;51310;52.198;5.422;2024-01-06T14:10:03;12.00;;;7.38;;
64842;SDS011;51310;52.198;5.422;2024-01-06T14:12:31;12.45;;;6.22;;
64842;SDS011;51310;52.198;5.422;2024-01-06T14:14:57;20.75;;;7.03;;
64842;SDS011;51310;52.198;5.422;2024-01-06T14:17:23;16.10;;;7.25;;
64842;SDS011;51310;52.198;5.422;2024-01-06T14:19:50;11.02;;;6.55;;
64842;SDS011;51310;52.198;5.422;2024-01-06T14:22:17;10.77;;;6.30;;
64842;SDS011;51310;52.198;5.422;2024-01-06T14:24:43;15.38;;;6.20;;
64842;SDS011;51310;52.198;5.422;2024-01-06T14:27:09;10.23;;;5.68;;
64842;SDS011;51310;52.198;5.422;2024-01-06T14:29:35;8.00;;;5.18;;
64842;SDS011;51310;52.198;5.422;2024-01-06T14:32:03;12.40;;;6.53;;
64842;SDS011;51310;52.198;5.422;2024-01-06T14:34:29;12.52;;;6.55;;
64842;SDS011;51310;52.198;5.422;2024-01-06T14:36:55;12.90;;;5.55;;
64842;SDS011;51310;52.198;5.422;2024-01-06T14:39:21;13.68;;;5.78;;
64842;SDS011;51310;52.198;5.422;2024-01-06T14:41:47;12.13;;;5.53;;
64842;SDS011;51310;52.198;5.422;2024-01-06T14:44:14;11.63;;;6.57;;